Time;durP1;ratioP1;P1;durP2;ratioP2;P2;SDS_P1;SDS_P2;PMS_P1;PMS_P2;Temp;Humidity;BMP_temperature;BMP_pressure;BME280_temperature;BME280_humidity;BME280_pressure;Samples;Min_cycle;Max_cycle;Signal;HPM_P1;HPM_P2
2022/08/13 00:01:21;;;;;;;2.53;2.00;;;25.90;49.00;;;;;;5035006;28;90160;-86
2022/08/13 00:03:47;;;;;;;4.47;1.90;;;25.90;48.90;;;;;;5018927;28;87104;-86
2022/08/13 00:06:23;;;;;;;2.70;2.00;;;25.90;49.00;;;;;;5017991;28;89228;-86
2022/08/13 00:08:49;;;;;;;2.90;1.77;;;25.90;49.00;;;;;;5019875;28;88776;-86
2022/08/13 00:12:56;;;;;;;2.47;1.83;;;25.90;49.00;;;;;;5018104;28;88259;-87
2022/08/13 00:14:04;;;;;;;2.50;1.90;;;25.90;49.00;;;;;;5019659;28;87262;-86
2022/08/13 00:16:31;;;;;;;;;;;25.90;49.00;;;;;;5020312;28;87155;-86
2022/08/13 00:18:57;;;;;;;2.45;1.90;;;25.90;49.00;;;;;;5020923;28;88637;-87
2022/08/13 00:21:23;;;;;;;2.53;1.75;;;25.90;49.10;;;;;;5018533;28;90852;-87
2022/08/13 00:23:57;;;;;;;4.82;1.73;;;25.90;49.10;;;;;;5018379;28;86923;-86
2022/08/13 00:26:25;;;;;;;2.33;1.73;;;25.80;49.10;;;;;;5019211;28;87536;-86
2022/08/13 00:28:54;;;;;;;2.70;1.55;;;25.80;48.90;;;;;;5018228;28;89342;-86
2022/08/13 00:31:19;;;;;;;;;;;25.80;48.90;;;;;;5036927;28;88971;-86
2022/08/13 00:33:45;;;;;;;4.88;1.80;;;25.80;49.60;;;;;;5038300;28;87712;-86
2022/08/13 00:36:12;;;;;;;2.45;1.85;;;25.80;49.00;;;;;;5020053;28;88603;-87
2022/08/13 00:38:40;;;;;;;1.65;1.55;;;25.80;49.10;;;;;;5037901;28;89110;-87
2022/08/13 00:41:07;;;;;;;2.00;1.43;;;25.90;49.00;;;;;;5018844;28;90211;-86
2022/08/13 00:43:33;;;;;;;1.95;1.60;;;25.80;49.00;;;;;;5020169;28;88561;-87
2022/08/13 00:46:00;;;;;;;2.08;1.80;;;25.80;48.80;;;;;;5036578;28;87479;-86
2022/08/13 00:48:46;;;;;;;1.88;1.60;;;25.80;48.90;;;;;;5019107;28;91096;-86
2022/08/13 00:51:13;;;;;;;2.15;1.90;;;25.80;49.70;;;;;;5019361;28;90648;-87
2022/08/13 00:53:40;;;;;;;1.65;1.40;;;25.80;49.10;;;;;;5037335;28;87100;-87
2022/08/13 00:56:08;;;;;;;2.35;1.85;;;25.80;49.00;;;;;;5018673;28;89442;-86
2022/08/13 00:58:35;;;;;;;2.30;1.67;;;25.80;49.10;;;;;;5019698;28;89231;-86
2022/08/13 01:01:02;;;;;;;2.63;1.77;;;25.80;49.20;;;;;;5021433;28;88722;-87
2022/08/13 01:03:31;;;;;;;1.75;1.50;;;25.80;49.00;;;;;;5022736;28;87399;-86
2022/08/13 01:05:59;;;;;;;2.15;1.65;;;25.80;49.10;;;;;;5038128;28;90449;-87
2022/08/13 01:08:26;;;;;;;1.75;1.52;;;25.80;49.00;;;;;;5021940;28;89348;-86
2022/08/13 01:10:56;;;;;;;1.73;1.42;;;25.80;48.90;;;;;;5020139;28;92163;-86
2022/08/13 01:13:25;;;;;;;1.80;1.60;;;25.80;49.00;;;;;;5020755;28;87513;-86
2022/08/13 01:15:51;;;;;;;1.98;1.60;;;25.80;49.00;;;;;;5022139;28;87447;-86
2022/08/13 01:18:23;;;;;;;2.10;1.85;;;25.80;49.60;;;;;;5022163;28;88602;-86
2022/08/13 01:21:09;;;;;;;1.98;1.63;;;25.80;49.00;;;;;;5022396;28;88056;-86
2022/08/13 01:23:36;;;;;;;2.00;1.60;;;25.80;49.00;;;;;;5038172;28;86900;-86
2022/08/13 01:26:02;;;;;;;3.70;2.20;;;25.80;48.90;;;;;;5022163;28;90058;-87
2022/08/13 01:28:29;;;;;;;1.67;1.45;;;25.80;49.00;;;;;;5022114;28;87859;-87
2022/08/13 01:30:57;;;;;;;2.08;1.85;;;25.70;49.10;;;;;;5036209;27;90266;-87
2022/08/13 01:33:23;;;;;;;1.98;1.77;;;25.70;49.00;;;;;;5020740;28;88375;-86
2022/08/13 01:35:51;;;;;;;2.28;1.85;;;25.70;49.00;;;;;;5020262;28;89190;-86
2022/08/13 01:38:16;;;;;;;2.50;1.80;;;25.80;49.00;;;;;;5021503;28;88757;-87
2022/08/13 01:40:44;;;;;;;2.67;1.83;;;25.80;49.10;;;;;;5023290;28;88214;-86
2022/08/13 01:43:10;;;;;;;3.30;1.77;;;25.70;49.00;;;;;;5037971;28;87496;-86
2022/08/13 01:45:37;;;;;;;2.03;1.70;;;25.70;48.90;;;;;;5036840;28;90517;-87
2022/08/13 01:50:48;;;;;;;2.00;1.80;;;25.70;49.10;;;;;;5022513;28;87426;-87
2022/08/13 01:53:16;;;;;;;1.92;1.77;;;25.70;49.00;;;;;;5020884;28;87874;-86
2022/08/13 01:55:45;;;;;;;2.03;1.30;;;25.70;49.00;;;;;;5020955;28;89963;-87
2022/08/13 01:58:18;;;;;;;2.60;1.95;;;25.70;49.20;;;;;;5021106;28;89371;-86
2022/08/13 02:00:47;;;;;;;1.98;1.63;;;25.70;49.20;;;;;;5021300;28;89443;-87
2022/08/13 02:03:14;;;;;;;1.50;1.40;;;25.70;49.00;;;;;;5022121;28;87471;-87
2022/08/13 02:05:40;;;;;;;2.30;1.67;;;25.70;49.20;;;;;;5021556;28;87315;-86
2022/08/13 02:08:08;;;;;;;2.50;1.88;;;25.70;49.10;;;;;;5020551;28;90138;-86
2022/08/13 02:10:36;;;;;;;1.95;1.60;;;25.70;49.20;;;;;;5036903;28;89265;-86
2022/08/13 02:13:04;;;;;;;1.67;1.58;;;25.70;49.10;;;;;;5035186;27;87419;-86
2022/08/13 02:15:30;;;;;;;2.10;1.67;;;25.70;49.10;;;;;;5021727;28;87289;-86
2022/08/13 02:17:56;;;;;;;2.05;1.40;;;25.70;49.20;;;;;;5019746;28;90381;-86
2022/08/13 02:20:22;;;;;;;2.13;1.70;;;25.70;49.40;;;;;;5021813;28;87678;-86
2022/08/13 02:22:49;;;;;;;2.75;2.00;;;25.70;49.20;;;;;;5019663;28;88344;-86
2022/08/13 02:25:16;;;;;;;1.77;1.50;;;25.60;49.20;;;;;;5021639;28;87475;-86
2022/08/13 02:27:43;;;;;;;1.42;1.33;;;25.70;49.20;;;;;;5019479;28;90205;-86
2022/08/13 02:30:11;;;;;;;2.08;1.88;;;25.60;49.10;;;;;;5037961;28;90390;-87
2022/08/13 02:32:40;;;;;;;1.48;1.38;;;25.60;49.30;;;;;;5038238;28;87549;-86
2022/08/13 02:35:09;;;;;;;1.52;1.42;;;25.60;49.20;;;;;;5021566;28;88903;-87
2022/08/13 02:37:36;;;;;;;;;;;25.70;49.40;;;;;;5022601;28;91424;-86
2022/08/13 02:41:37;;;;;;;1.92;1.50;;;25.60;49.60;;;;;;5022917;28;89446;-86
2022/08/13 02:42:52;;;;;;;1.58;1.48;;;25.60;49.70;;;;;;5038693;27;87379;-86
2022/08/13 02:45:20;;;;;;;2.17;1.95;;;25.60;49.60;;;;;;5037867;28;89048;-87
2022/08/13 02:47:45;;;;;;;2.22;1.50;;;25.60;49.60;;;;;;5036953;28;88447;-86
2022/08/13 02:50:11;;;;;;;1.52;1.30;;;25.60;49.40;;;;;;5037991;28;89328;-86
2022/08/13 02:52:40;;;;;;;2.30;1.60;;;25.60;49.60;;;;;;5021174;28;87023;-86
2022/08/13 02:55:07;;;;;;;2.13;1.85;;;25.60;49.60;;;;;;5037957;28;87424;-86
2022/08/13 02:57:33;;;;;;;1.75;1.42;;;25.60;49.60;;;;;;5037299;28;90114;-86
2022/08/13 02:59:59;;;;;;;1.50;1.40;;;25.60;49.30;;;;;;5038123;28;88565;-86
2022/08/13 03:02:25;;;;;;;2.40;1.73;;;25.60;49.20;;;;;;5020363;28;86981;-86
2022/08/13 03:04:51;;;;;;;3.33;1.95;;;25.60;49.20;;;;;;5035234;28;88483;-86
2022/08/13 03:07:18;;;;;;;1.90;1.50;;;25.60;49.10;;;;;;5018869;28;90720;-86
2022/08/13 03:09:43;;;;;;;1.63;1.50;;;25.60;49.80;;;;;;5019678;28;87398;-87
2022/08/13 03:12:12;;;;;;;1.52;1.38;;;25.60;49.10;;;;;;5018523;28;88586;-87
2022/08/13 03:14:38;;;;;;;1.50;1.40;;;25.60;49.20;;;;;;5035282;28;87792;-86
2022/08/13 03:17:04;;;;;;;2.22;1.88;;;25.60;49.30;;;;;;5018589;28;90639;-86
2022/08/13 03:19:30;;;;;;;1.70;1.45;;;25.60;49.60;;;;;;5019761;28;88040;-86
2022/08/13 03:21:56;;;;;;;1.95;1.73;;;25.60;49.30;;;;;;5018606;28;87366;-86
2022/08/13 03:24:21;;;;;;;1.80;1.60;;;25.60;49.40;;;;;;5018264;28;87340;-87
2022/08/13 03:26:47;;;;;;;1.60;1.50;;;25.60;49.30;;;;;;5016344;28;90279;-86
2022/08/13 03:29:14;;;;;;;1.52;1.40;;;25.60;50.00;;;;;;5017133;28;92029;-86
2022/08/13 03:31:40;;;;;;;1.60;1.50;;;25.50;49.30;;;;;;5019570;28;86912;-87
2022/08/13 03:34:20;;;;;;;1.98;1.50;;;25.50;49.20;;;;;;5018105;28;90300;-86
2022/08/13 03:36:46;;;;;;;1.75;1.65;;;25.50;49.20;;;;;;5056462;27;91142;-86
2022/08/13 03:39:12;;;;;;;2.13;1.92;;;25.50;49.30;;;;;;5040517;27;90988;-86
2022/08/13 03:41:37;;;;;;;2.85;1.40;;;25.60;49.50;;;;;;5059538;27;87392;-87
2022/08/13 03:44:05;;;;;;;2.00;1.58;;;25.50;49.40;;;;;;5040432;27;90177;-86
2022/08/13 03:46:33;;;;;;;3.58;1.92;;;25.50;49.20;;;;;;5058422;27;87621;-86
2022/08/13 03:48:59;;;;;;;3.75;1.88;;;25.50;49.30;;;;;;5058232;27;87892;-86
2022/08/13 03:51:25;;;;;;;1.48;1.38;;;25.50;49.30;;;;;;5040811;27;87348;-86
2022/08/13 03:53:53;;;;;;;2.05;1.55;;;25.60;49.40;;;;;;5040730;27;90037;-86
2022/08/13 03:56:20;;;;;;;1.40;1.30;;;25.50;49.40;;;;;;5039679;27;91692;-86
2022/08/13 03:58:46;;;;;;;2.17;1.58;;;25.50;49.30;;;;;;5057694;27;87770;-87
2022/08/13 04:01:17;;;;;;;2.75;1.70;;;25.50;49.50;;;;;;5056980;27;87845;-87
2022/08/13 04:03:43;;;;;;;1.73;1.50;;;25.50;49.40;;;;;;5056373;27;89118;-86
2022/08/13 04:06:15;;;;;;;1.58;1.48;;;25.50;49.40;;;;;;5040106;27;90224;-86
2022/08/13 04:08:41;;;;;;;1.50;1.40;;;25.50;49.40;;;;;;5040025;27;87367;-86
2022/08/13 04:11:12;;;;;;;1.92;1.42;;;25.50;49.40;;;;;;5037468;28;87038;-86
2022/08/13 04:13:39;;;;;;;1.77;1.60;;;25.50;49.20;;;;;;5020352;28;91230;-86
2022/08/13 04:16:23;;;;;;;1.77;1.50;;;25.50;49.50;;;;;;5036648;28;91278;-86
2022/08/13 04:18:51;;;;;;;1.70;1.60;;;25.50;49.50;;;;;;5020550;28;92487;-86
2022/08/13 04:21:18;;;;;;;1.50;1.40;;;25.50;49.40;;;;;;5021037;28;86963;-85
2022/08/13 04:23:46;;;;;;;1.70;1.52;;;25.50;49.50;;;;;;5035005;28;87030;-86
2022/08/13 04:26:23;;;;;;;1.90;1.70;;;25.50;49.50;;;;;;5037136;28;89493;-87
2022/08/13 04:28:48;;;;;;;1.52;1.42;;;25.50;49.40;;;;;;5037489;28;87621;-87
2022/08/13 04:31:15;;;;;;;1.63;1.40;;;25.50;49.50;;;;;;5019907;28;86895;-86
2022/08/13 04:33:41;;;;;;;1.63;1.50;;;25.50;49.50;;;;;;5036267;28;87433;-86
2022/08/13 04:36:07;;;;;;;2.00;1.60;;;25.50;49.50;;;;;;5020399;28;90141;-87
2022/08/13 04:38:33;;;;;;;1.80;1.50;;;25.50;49.30;;;;;;5023332;28;88282;-86
2022/08/13 04:40:59;;;;;;;1.88;1.55;;;25.50;49.30;;;;;;5023331;28;87464;-86
2022/08/13 04:43:25;;;;;;;1.60;1.50;;;25.50;49.60;;;;;;5021888;28;89358;-86
2022/08/13 04:45:51;;;;;;;2.13;1.83;;;25.50;49.60;;;;;;5021782;28;91778;-86
2022/08/13 04:48:17;;;;;;;1.40;1.20;;;25.50;49.60;;;;;;5020170;28;89907;-87
2022/08/13 04:50:45;;;;;;;1.63;1.48;;;25.40;49.40;;;;;;5022552;28;87770;-87
2022/08/13 04:53:23;;;;;;;2.33;1.75;;;25.50;49.60;;;;;;5022720;28;87904;-86
2022/08/13 04:55:49;;;;;;;1.60;1.50;;;25.50;49.60;;;;;;5020385;28;90152;-86
2022/08/13 04:58:16;;;;;;;1.73;1.48;;;25.40;49.50;;;;;;5022706;28;87543;-87
2022/08/13 05:00:44;;;;;;;2.60;1.83;;;25.50;49.50;;;;;;5023124;28;87410;-86
2022/08/13 05:03:20;;;;;;;1.60;1.50;;;25.50;49.40;;;;;;5022384;28;87420;-86
2022/08/13 05:05:49;;;;;;;1.83;1.60;;;25.50;49.30;;;;;;5022393;28;87606;-86
2022/08/13 05:08:15;;;;;;;1.55;1.45;;;25.50;49.30;;;;;;5021386;28;90593;-86
2022/08/13 05:10:43;;;;;;;1.80;1.60;;;25.50;49.80;;;;;;5021190;28;87436;-86
2022/08/13 05:13:27;;;;;;;2.05;1.50;;;25.50;49.40;;;;;;5022189;28;86854;-87
2022/08/13 05:15:55;;;;;;;1.65;1.25;;;25.50;49.20;;;;;;5019874;28;91546;-86
2022/08/13 05:18:21;;;;;;;2.03;1.83;;;25.60;49.30;;;;;;5020817;28;91153;-86
2022/08/13 05:20:47;;;;;;;1.70;1.55;;;25.60;49.20;;;;;;5020797;28;87464;-86
2022/08/13 05:23:15;;;;;;;1.55;1.40;;;25.60;49.20;;;;;;5020712;28;89379;-86
2022/08/13 05:25:42;;;;;;;1.63;1.52;;;25.60;49.10;;;;;;5020128;28;90484;-86
2022/08/13 05:28:08;;;;;;;2.10;1.40;;;25.70;48.90;;;;;;5022140;28;88079;-87
2022/08/13 05:30:37;;;;;;;1.60;1.50;;;25.70;49.10;;;;;;5022744;28;87256;-86
2022/08/13 05:33:13;;;;;;;1.50;1.33;;;25.70;49.00;;;;;;5022062;28;87380;-86
2022/08/13 05:35:44;;;;;;;3.60;1.67;;;25.80;49.00;;;;;;5021056;28;90254;-87
2022/08/13 05:38:10;;;;;;;1.60;1.50;;;25.80;48.90;;;;;;5036378;28;90771;-86
2022/08/13 05:40:38;;;;;;;2.47;1.50;;;25.80;48.80;;;;;;5020081;28;88098;-86
2022/08/13 05:43:15;;;;;;;1.48;1.27;;;25.80;48.90;;;;;;5021937;28;87405;-86
2022/08/13 05:45:42;;;;;;;1.58;1.48;;;25.90;49.20;;;;;;5020588;28;88694;-86
2022/08/13 05:48:09;;;;;;;1.60;1.50;;;25.90;49.30;;;;;;5020217;28;86877;-86
2022/08/13 05:50:35;;;;;;;1.80;1.60;;;25.90;49.20;;;;;;5020113;28;87248;-86
2022/08/13 05:53:10;;;;;;;1.60;1.50;;;25.90;49.10;;;;;;5019953;28;89868;-86
2022/08/13 05:55:37;;;;;;;1.50;1.35;;;26.00;49.00;;;;;;5021864;28;88771;-86
2022/08/13 05:58:04;;;;;;;1.90;1.60;;;26.00;49.20;;;;;;5021746;28;88450;-87
2022/08/13 06:03:27;;;;;;;1.38;1.27;;;26.00;49.10;;;;;;5021838;28;87726;-86
2022/08/13 06:05:58;;;;;;;1.37;1.27;;;26.00;49.10;;;;;;5019395;28;92611;-86
2022/08/13 06:08:30;;;;;;;1.58;1.48;;;26.00;49.20;;;;;;5020114;28;91160;-87
2022/08/13 06:11:01;;;;;;;1.90;1.67;;;26.10;49.10;;;;;;5022005;28;86911;-87
2022/08/13 06:13:28;;;;;;;2.88;1.63;;;26.10;49.10;;;;;;5021612;28;87152;-86
2022/08/13 06:15:58;;;;;;;1.50;1.40;;;26.10;49.30;;;;;;5021183;28;87350;-86
2022/08/13 06:18:29;;;;;;;1.52;1.42;;;26.10;49.30;;;;;;5021702;28;88048;-87
2022/08/13 06:20:57;;;;;;;3.50;1.65;;;26.10;49.00;;;;;;5021187;28;87257;-87
2022/08/13 06:23:25;;;;;;;2.15;1.60;;;26.20;49.10;;;;;;5036658;28;87143;-84
2022/08/13 06:25:53;;;;;;;4.13;1.70;;;26.20;49.00;;;;;;5020161;28;88643;-85
2022/08/13 06:28:25;;;;;;;6.40;2.15;;;26.30;47.10;;;;;;5020795;28;89399;-86
2022/08/13 06:30:53;;;;;;;5.97;2.88;;;26.20;44.10;;;;;;5020887;28;87776;-86
2022/08/13 06:33:23;;;;;;;5.22;2.33;;;26.10;43.40;;;;;;5019750;28;87258;-85
2022/08/13 06:35:49;;;;;;;;;;;26.10;43.40;;;;;;5020000;28;89298;-86
2022/08/13 06:38:17;;;;;;;7.35;2.40;;;26.00;43.50;;;;;;5023106;28;87724;-87
2022/08/13 06:40:45;;;;;;;7.77;2.33;;;26.00;43.60;;;;;;5020618;28;87354;-87
2022/08/13 06:43:11;;;;;;;5.65;2.10;;;26.00;43.30;;;;;;5021033;28;87275;-87
2022/08/13 06:45:37;;;;;;;6.28;2.17;;;25.90;43.20;;;;;;5020889;28;88656;-86
2022/08/13 06:48:03;;;;;;;6.78;2.15;;;25.90;43.00;;;;;;5020467;28;90853;-87
2022/08/13 06:50:30;;;;;;;6.13;2.30;;;25.80;42.80;;;;;;5019141;28;87490;-84
2022/08/13 06:52:56;;;;;;;6.05;2.35;;;25.80;42.50;;;;;;5019526;28;89366;-85
2022/08/13 06:55:21;;;;;;;6.57;2.47;;;25.80;42.90;;;;;;5020360;28;88747;-85
2022/08/13 06:57:48;;;;;;;4.10;2.00;;;25.80;42.60;;;;;;5020472;28;88329;-85
2022/08/13 07:00:14;;;;;;;4.90;1.85;;;25.80;42.40;;;;;;5020635;28;86944;-85
2022/08/13 07:02:42;;;;;;;7.45;2.22;;;25.80;41.80;;;;;;5020534;28;86930;-85
2022/08/13 07:05:08;;;;;;;2.70;1.90;;;25.80;41.60;;;;;;5019627;28;90252;-85
2022/08/13 07:07:44;;;;;;;7.25;1.90;;;25.80;42.20;;;;;;5020602;28;88113;-85
2022/08/13 07:10:11;;;;;;;6.28;2.15;;;25.80;41.90;;;;;;5018625;28;87438;-85
2022/08/13 07:12:41;;;;;;;6.88;2.10;;;25.80;41.60;;;;;;5021952;28;87097;-85
2022/08/13 07:15:14;;;;;;;5.07;2.25;;;25.80;42.00;;;;;;5020563;28;88171;-84
2022/08/13 07:17:41;;;;;;;7.85;2.00;;;25.80;41.90;;;;;;5020340;28;88235;-85
2022/08/13 07:20:07;;;;;;;29.42;5.97;;;25.80;41.30;;;;;;5019875;28;88086;-84
2022/08/13 07:22:34;;;;;;;51.25;9.43;;;25.80;41.30;;;;;;5020384;28;87450;-84
2022/08/13 07:25:00;;;;;;;39.75;6.30;;;25.80;41.60;;;;;;5019387;28;91543;-84
2022/08/13 07:27:26;;;;;;;20.95;3.60;;;25.80;41.50;;;;;;5020186;28;89070;-84
2022/08/13 07:29:53;;;;;;;16.08;3.55;;;25.80;41.60;;;;;;5020568;28;86851;-86
2022/08/13 07:32:19;;;;;;;5.70;2.83;;;25.90;42.00;;;;;;5020342;28;86964;-88
2022/08/13 07:34:46;;;;;;;9.45;2.80;;;25.80;42.10;;;;;;5020784;28;88713;-88
2022/08/13 07:37:20;;;;;;;11.45;2.85;;;25.80;42.20;;;;;;5021765;28;86636;-88
2022/08/13 07:39:46;;;;;;;13.35;2.85;;;25.80;42.50;;;;;;5018824;28;86934;-85
2022/08/13 07:42:15;;;;;;;10.70;3.78;;;25.80;42.80;;;;;;5020513;28;86990;-88
2022/08/13 07:44:41;;;;;;;17.75;3.08;;;25.70;42.70;;;;;;5036507;28;92401;-87
2022/08/13 07:47:15;;;;;;;10.00;3.15;;;25.80;42.80;;;;;;5020597;28;89134;-86
2022/08/13 07:49:41;;;;;;;17.88;3.38;;;25.80;43.10;;;;;;5020979;28;87359;-86
2022/08/13 07:52:09;;;;;;;13.40;2.50;;;25.70;43.30;;;;;;5018527;28;86903;-85
2022/08/13 07:54:35;;;;;;;10.80;3.08;;;25.70;43.70;;;;;;5019671;28;88039;-87
2022/08/13 07:57:01;;;;;;;12.40;3.50;;;25.70;44.20;;;;;;5018400;28;88451;-86
2022/08/13 07:59:28;;;;;;;15.45;2.63;;;25.80;44.40;;;;;;5018256;28;87329;-88
2022/08/13 08:01:55;;;;;;;14.48;3.20;;;25.80;44.70;;;;;;5020481;28;87477;-88
2022/08/13 08:04:30;;;;;;;11.30;3.20;;;25.80;44.50;;;;;;5019813;28;87691;-86
2022/08/13 08:06:57;;;;;;;9.82;2.72;;;25.80;44.70;;;;;;5019544;28;87452;-86
2022/08/13 08:09:29;;;;;;;9.75;3.53;;;25.80;45.00;;;;;;5017537;28;87987;-87
2022/08/13 08:14:42;;;;;;;7.57;2.85;;;25.80;45.10;;;;;;5023353;28;87319;-86
2022/08/13 08:17:09;;;;;;;7.20;2.30;;;25.80;45.30;;;;;;5039736;28;87893;-88
2022/08/13 08:19:37;;;;;;;10.27;2.70;;;25.80;45.50;;;;;;5040509;28;88403;-87
2022/08/13 08:22:05;;;;;;;14.20;2.88;;;25.90;45.70;;;;;;4973759;28;89505;-85
2022/08/13 08:24:32;;;;;;;7.70;2.30;;;25.90;45.90;;;;;;5035602;28;88783;-86
2022/08/13 08:27:03;;;;;;;6.53;2.60;;;25.90;46.10;;;;;;5040896;28;87616;-85
2022/08/13 08:29:31;;;;;;;15.45;3.10;;;25.90;46.30;;;;;;5022732;28;87415;-84
2022/08/13 08:31:59;;;;;;;15.70;3.10;;;26.00;46.60;;;;;;5039539;28;87687;-84
2022/08/13 08:34:25;;;;;;;8.68;2.42;;;26.00;46.50;;;;;;5039346;28;91302;-82
2022/08/13 08:36:56;;;;;;;7.43;2.25;;;26.00;46.40;;;;;;5039585;28;90587;-83
2022/08/13 08:44:59;;;;;;;24.83;5.88;;;26.00;46.90;;;;;;5040155;28;87582;-84
2022/08/13 08:47:29;;;;;;;29.63;7.57;;;25.90;47.70;;;;;;5036693;28;87440;-85
2022/08/13 08:49:59;;;;;;;49.22;11.38;;;25.90;47.60;;;;;;5021515;28;87230;-84
2022/08/13 08:53:19;;;;;;;50.05;12.23;;;25.90;47.80;;;;;;5021590;28;88839;-84
2022/08/13 08:55:13;;;;;;;39.85;11.23;;;25.90;48.30;;;;;;5021321;28;87265;-84
2022/08/13 08:57:41;;;;;;;40.60;10.02;;;26.00;48.70;;;;;;5019296;28;90767;-84
2022/08/13 09:00:14;;;;;;;41.22;10.57;;;26.00;48.40;;;;;;5018683;28;88606;-84
2022/08/13 09:02:40;;;;;;;36.25;10.38;;;26.00;48.50;;;;;;5020534;28;90400;-84
2022/08/13 09:05:12;;;;;;;34.22;9.70;;;26.00;49.00;;;;;;5019478;28;89178;-84
2022/08/13 09:07:40;;;;;;;37.65;10.45;;;26.00;49.30;;;;;;5023069;28;88421;-85
2022/08/13 09:10:06;;;;;;;33.22;9.80;;;26.00;48.90;;;;;;5021946;28;86859;-84
2022/08/13 09:12:32;;;;;;;32.72;9.35;;;26.10;48.90;;;;;;5022078;28;87527;-85
2022/08/13 09:14:59;;;;;;;28.40;8.70;;;26.10;49.00;;;;;;5021594;28;89037;-84
2022/08/13 09:17:28;;;;;;;28.63;8.55;;;26.00;48.90;;;;;;5021559;28;87497;-84
2022/08/13 09:19:54;;;;;;;26.08;8.55;;;26.10;48.60;;;;;;5021385;28;87228;-86
2022/08/13 09:22:23;;;;;;;32.47;8.82;;;26.10;49.00;;;;;;5021548;28;87285;-84
2022/08/13 09:24:49;;;;;;;;;;;26.10;48.90;;;;;;5020489;28;92354;-84
2022/08/13 09:27:18;;;;;;;28.17;7.28;;;26.10;48.80;;;;;;5023297;28;88657;-85
2022/08/13 09:29:45;;;;;;;24.35;8.25;;;26.10;49.40;;;;;;5020406;28;87644;-84
2022/08/13 09:32:14;;;;;;;21.10;7.70;;;26.20;49.70;;;;;;5021763;28;87405;-86
2022/08/13 09:34:43;;;;;;;;;;;26.40;49.80;;;;;;5021074;28;92356;-86
2022/08/13 09:37:09;;;;;;;17.42;6.55;;;26.50;49.20;;;;;;5023516;28;87807;-86
2022/08/13 09:39:37;;;;;;;20.80;7.22;;;26.60;49.30;;;;;;5037745;28;87088;-88
2022/08/13 09:42:10;;;;;;;19.15;6.93;;;26.70;49.20;;;;;;5022190;28;88877;-86
2022/08/13 09:44:42;;;;;;;18.58;6.78;;;26.70;49.20;;;;;;5021816;28;88414;-85
2022/08/13 09:47:11;;;;;;;16.85;6.63;;;26.70;49.10;;;;;;5021146;28;88044;-85
2022/08/13 09:49:38;;;;;;;19.40;5.85;;;26.60;49.30;;;;;;5021507;28;88353;-85
2022/08/13 09:52:04;;;;;;;21.08;6.30;;;26.60;48.90;;;;;;5021294;28;86946;-85
2022/08/13 09:54:29;;;;;;;22.88;5.82;;;26.60;49.30;;;;;;5021008;28;88509;-86
2022/08/13 09:56:58;;;;;;;15.57;5.25;;;26.60;49.50;;;;;;5021116;28;88201;-85
2022/08/13 09:59:24;;;;;;;19.60;5.03;;;26.70;49.90;;;;;;5024344;28;86786;-84
2022/08/13 10:01:51;;;;;;;15.30;5.28;;;26.70;49.90;;;;;;5021786;28;88008;-85
2022/08/13 10:04:18;;;;;;;12.38;4.97;;;26.70;50.20;;;;;;5021021;28;87741;-86
2022/08/13 10:06:47;;;;;;;17.67;4.57;;;26.80;50.80;;;;;;5021803;28;86502;-86
2022/08/13 10:09:16;;;;;;;11.60;4.32;;;26.80;51.50;;;;;;5021088;28;87570;-85
2022/08/13 10:11:41;;;;;;;15.73;5.32;;;26.80;51.60;;;;;;5019213;28;90669;-85
2022/08/13 10:14:08;;;;;;;17.25;4.40;;;26.80;51.90;;;;;;5021830;28;88455;-85
2022/08/13 10:16:35;;;;;;;10.40;4.07;;;26.80;52.30;;;;;;5019869;28;91759;-84
2022/08/13 10:19:03;;;;;;;13.25;4.43;;;26.80;52.40;;;;;;5022409;28;87649;-84
2022/08/13 10:21:29;;;;;;;14.75;3.75;;;26.80;52.80;;;;;;5021908;28;87447;-86
2022/08/13 10:23:54;;;;;;;10.30;3.90;;;26.80;52.70;;;;;;5020161;28;87827;-85
2022/08/13 10:26:20;;;;;;;10.20;3.88;;;26.80;52.70;;;;;;5018922;28;91062;-84
2022/08/13 10:28:47;;;;;;;13.35;4.18;;;26.80;52.90;;;;;;5020622;28;87517;-84
2022/08/13 10:31:13;;;;;;;10.30;3.90;;;26.90;53.00;;;;;;5019861;28;88813;-85
2022/08/13 10:33:39;;;;;;;15.13;4.72;;;26.90;53.10;;;;;;5008705;28;91556;-85
2022/08/13 10:36:06;;;;;;;10.23;4.07;;;27.00;53.10;;;;;;5021268;28;87759;-85
2022/08/13 10:38:33;;;;;;;10.57;4.47;;;27.00;53.30;;;;;;5020222;28;88162;-84
2022/08/13 10:41:07;;;;;;;18.27;4.78;;;27.00;53.50;;;;;;5019739;28;87360;-85
2022/08/13 10:43:40;;;;;;;9.02;3.85;;;27.10;54.10;;;;;;5019880;28;89222;-85
2022/08/13 10:46:11;;;;;;;8.90;3.38;;;27.10;53.50;;;;;;5019950;28;88760;-86
2022/08/13 10:48:38;;;;;;;10.15;4.18;;;27.10;53.40;;;;;;5037028;28;86956;-86
2022/08/13 10:51:04;;;;;;;11.50;4.32;;;27.10;53.40;;;;;;5016682;28;87982;-86
2022/08/13 10:56:13;;;;;;;9.60;3.83;;;27.10;53.40;;;;;;5017638;28;86899;-84
2022/08/13 10:58:40;;;;;;;8.35;3.92;;;27.10;53.50;;;;;;5017846;28;87036;-85
2022/08/13 11:01:05;;;;;;;8.27;3.38;;;27.10;53.10;;;;;;5017284;28;87800;-85
2022/08/13 11:03:33;;;;;;;9.93;3.72;;;27.10;52.90;;;;;;5015208;28;87854;-84
2022/08/13 11:06:00;;;;;;;13.43;3.85;;;27.00;53.00;;;;;;5016699;28;88887;-85
2022/08/13 11:08:36;;;;;;;12.48;4.10;;;26.90;50.90;;;;;;5018133;28;87012;-86
2022/08/13 11:11:02;;;;;;;11.63;3.67;;;26.70;50.20;;;;;;5018988;28;87544;-85
2022/08/13 11:13:28;;;;;;;13.43;3.80;;;26.50;49.30;;;;;;5019968;28;88008;-85
2022/08/13 11:15:54;;;;;;;13.45;3.83;;;26.40;48.10;;;;;;5019473;28;87347;-88
2022/08/13 11:18:19;;;;;;;16.08;4.13;;;26.30;47.70;;;;;;5020539;28;87224;-86
2022/08/13 11:21:06;;;;;;;15.88;4.05;;;26.20;48.10;;;;;;5019356;28;87789;-86
2022/08/13 11:23:33;;;;;;;14.70;4.18;;;26.20;47.40;;;;;;5019728;28;88663;-86
2022/08/13 11:25:58;;;;;;;12.88;4.18;;;26.20;47.10;;;;;;5020632;28;88410;-87
2022/08/13 11:28:24;;;;;;;18.15;4.30;;;26.10;46.80;;;;;;5019280;28;88429;-86
2022/08/13 11:30:51;;;;;;;11.80;4.25;;;26.10;50.00;;;;;;5018753;28;87264;-86
2022/08/13 11:33:19;;;;;;;14.30;3.85;;;26.10;52.10;;;;;;5020759;28;89051;-86
2022/08/13 11:35:52;;;;;;;10.30;3.60;;;26.10;53.90;;;;;;5035842;28;91021;-86
2022/08/13 11:38:20;;;;;;;12.93;4.30;;;26.10;55.00;;;;;;5019317;28;87522;-86
2022/08/13 11:40:48;;;;;;;9.00;3.83;;;26.10;55.90;;;;;;5018506;28;89945;-86
2022/08/13 11:43:14;;;;;;;14.65;4.07;;;26.20;57.00;;;;;;5019244;28;91644;-84
2022/08/13 11:45:40;;;;;;;14.68;4.07;;;26.20;57.90;;;;;;5020215;28;86784;-86
2022/08/13 11:48:06;;;;;;;14.10;4.28;;;26.20;55.70;;;;;;5018586;28;87269;-86
2022/08/13 11:50:32;;;;;;;21.10;4.25;;;26.20;54.30;;;;;;5019371;28;87412;-86
2022/08/13 11:52:58;;;;;;;10.00;4.28;;;26.10;53.30;;;;;;5017118;28;91416;-87
2022/08/13 11:55:24;;;;;;;11.90;4.43;;;26.10;51.90;;;;;;5036504;28;89727;-88
2022/08/13 11:58:01;;;;;;;22.20;4.25;;;26.10;50.90;;;;;;5036021;28;87639;-85
2022/08/13 12:00:28;;;;;;;19.80;4.40;;;26.10;50.30;;;;;;5034245;28;87529;-86
2022/08/13 12:02:54;;;;;;;28.33;4.97;;;26.10;49.30;;;;;;5037594;28;88388;-86
2022/08/13 12:05:19;;;;;;;11.48;3.70;;;26.00;49.50;;;;;;5035992;28;89021;-85
2022/08/13 12:07:45;;;;;;;14.38;4.35;;;26.00;52.80;;;;;;5037279;28;87032;-85
2022/08/13 12:10:14;;;;;;;16.17;4.43;;;26.00;54.40;;;;;;5035354;28;86259;-85
2022/08/13 12:12:39;;;;;;;15.57;5.05;;;26.00;55.60;;;;;;5037435;28;88542;-85
2022/08/13 12:15:06;;;;;;;16.10;3.92;;;26.10;56.40;;;;;;5036753;28;87678;-86
2022/08/13 12:17:34;;;;;;;13.67;4.37;;;26.10;57.00;;;;;;5037272;28;88229;-84
2022/08/13 12:19:59;;;;;;;18.70;4.50;;;26.10;55.70;;;;;;5036165;28;87448;-84
2022/08/13 12:22:25;;;;;;;17.63;3.97;;;26.10;53.80;;;;;;5036394;28;87610;-85
2022/08/13 12:24:52;;;;;;;24.02;6.07;;;26.10;52.10;;;;;;5036041;28;88982;-86
2022/08/13 12:27:18;;;;;;;47.65;11.63;;;26.10;51.20;;;;;;5019753;28;87587;-86
2022/08/13 12:29:43;;;;;;;58.88;15.55;;;26.10;50.70;;;;;;5015835;28;88157;-86
2022/08/13 12:32:09;;;;;;;67.15;18.77;;;26.00;49.60;;;;;;5017561;28;88496;-85
2022/08/13 12:34:37;;;;;;;55.38;17.55;;;26.00;48.90;;;;;;5017950;28;87696;-86
2022/08/13 12:37:02;;;;;;;50.72;16.63;;;26.00;48.00;;;;;;5017771;28;87411;-85
2022/08/13 12:39:28;;;;;;;60.50;16.25;;;26.00;47.60;;;;;;5012898;28;87913;-85
2022/08/13 12:41:54;;;;;;;53.83;15.68;;;25.90;47.60;;;;;;5018114;28;89496;-91
2022/08/13 12:44:19;;;;;;;40.92;14.80;;;25.90;47.40;;;;;;5016045;28;91081;-86
2022/08/13 12:46:46;;;;;;;43.03;14.80;;;25.80;46.70;;;;;;5017570;28;87198;-84
2022/08/13 12:49:11;;;;;;;46.28;14.05;;;25.80;46.30;;;;;;5016290;28;86895;-87
2022/08/13 12:51:37;;;;;;;40.78;14.43;;;25.80;46.40;;;;;;5016815;28;88719;-86
2022/08/13 12:54:03;;;;;;;46.33;13.25;;;25.80;45.80;;;;;;5014612;28;90710;-85
2022/08/13 12:56:29;;;;;;;42.70;13.68;;;25.80;45.80;;;;;;5017759;28;87291;-86
2022/08/13 12:58:54;;;;;;;38.78;12.88;;;25.80;46.30;;;;;;5021471;28;87505;-84
2022/08/13 13:01:20;;;;;;;33.33;12.02;;;25.90;48.20;;;;;;5019758;28;90365;-85
2022/08/13 13:03:45;;;;;;;26.17;11.00;;;26.00;49.70;;;;;;5018371;28;91578;-84